sensor_id;sensor_type;location;lat;lon;timestamp;P1;durP1;ratioP1;P2;durP2;ratioP2
55827;SDS011;41758;51.992;5.890;2023-12-14T00:00:27;24.30;;;18.08;;
55827;SDS011;41758;51.992;5.890;2023-12-14T00:02:53;26.98;;;19.48;;
55827;SDS011;41758;51.992;5.890;2023-12-14T00:05:19;32.63;;;18.40;;
55827;SDS011;41758;51.992;5.890;2023-12-14T00:07:44;27.10;;;17.85;;
55827;SDS011;41758;51.992;5.890;2023-12-14T00:10:10;28.88;;;17.15;;
55827;SDS011;41758;51.992;5.890;2023-12-14T00:12:37;28.30;;;17.08;;
55827;SDS011;41758;51.992;5.890;2023-12-14T00:15:03;30.55;;;18.08;;
55827;SDS011;41758;51.992;5.890;2023-12-14T00:17:30;26.90;;;17.80;;
55827;SDS011;41758;51.992;5.890;2023-12-14T00:19:56;31.48;;;18.35;;
55827;SDS011;41758;51.992;5.890;2023-12-14T00:22:22;31.35;;;17.63;;
55827;SDS011;41758;51.992;5.890;2023-12-14T00:24:47;24.80;;;18.50;;
55827;SDS011;41758;51.992;5.890;2023-12-14T00:27:13;28.38;;;20.85;;
55827;SDS011;41758;51.992;5.890;2023-12-14T00:29:39;31.77;;;19.65;;
55827;SDS011;41758;51.992;5.890;2023-12-14T00:32:05;36.00;;;19.70;;
55827;SDS011;41758;51.992;5.890;2023-12-14T00:34:31;26.95;;;21.10;;
55827;SDS011;41758;51.992;5.890;2023-12-14T00:36:56;33.03;;;21.35;;
55827;SDS011;41758;51.992;5.890;2023-12-14T00:39:22;34.97;;;20.40;;
55827;SDS011;41758;51.992;5.890;2023-12-14T00:41:48;31.80;;;18.85;;
55827;SDS011;41758;51.992;5.890;2023-12-14T00:44:13;33.25;;;19.45;;
55827;SDS011;41758;51.992;5.890;2023-12-14T00:46:39;26.92;;;19.23;;
55827;SDS011;41758;51.992;5.890;2023-12-14T00:49:06;28.05;;;21.02;;
55827;SDS011;41758;51.992;5.890;2023-12-14T00:51:32;30.13;;;19.85;;
55827;SDS011;41758;51.992;5.890;2023-12-14T00:53:58;28.73;;;20.00;;
55827;SDS011;41758;51.992;5.890;2023-12-14T00:56:23;26.58;;;20.23;;
55827;SDS011;41758;51.992;5.890;2023-12-14T00:58:49;29.70;;;19.88;;
55827;SDS011;41758;51.992;5.890;2023-12-14T01:01:15;30.17;;;20.23;;
55827;SDS011;41758;51.992;5.890;2023-12-14T01:03:40;27.15;;;18.88;;
55827;SDS011;41758;51.992;5.890;2023-12-14T01:06:06;30.73;;;19.65;;
55827;SDS011;41758;51.992;5.890;2023-12-14T01:08:32;27.20;;;18.67;;
55827;SDS011;41758;51.992;5.890;2023-12-14T01:10:58;26.88;;;17.25;;
55827;SDS011;41758;51.992;5.890;2023-12-14T01:13:23;31.30;;;19.10;;
55827;SDS011;41758;51.992;5.890;2023-12-14T01:15:49;26.38;;;17.33;;
55827;SDS011;41758;51.992;5.890;2023-12-14T01:18:15;22.42;;;16.50;;
55827;SDS011;41758;51.992;5.890;2023-12-14T01:20:42;21.35;;;16.42;;
55827;SDS011;41758;51.992;5.890;2023-12-14T01:23:08;29.42;;;19.27;;
55827;SDS011;41758;51.992;5.890;2023-12-14T01:25:37;22.35;;;15.93;;
55827;SDS011;41758;51.992;5.890;2023-12-14T01:28:02;30.73;;;18.60;;
55827;SDS011;41758;51.992;5.890;2023-12-14T01:30:28;25.27;;;16.08;;
55827;SDS011;41758;51.992;5.890;2023-12-14T01:32:54;19.63;;;15.60;;
55827;SDS011;41758;51.992;5.890;2023-12-14T01:35:19;24.88;;;16.23;;
55827;SDS011;41758;51.992;5.890;2023-12-14T01:37:45;26.92;;;15.98;;
55827;SDS011;41758;51.992;5.890;2023-12-14T01:40:11;30.15;;;18.08;;
55827;SDS011;41758;51.992;5.890;2023-12-14T01:42:37;25.77;;;15.27;;
55827;SDS011;41758;51.992;5.890;2023-12-14T01:45:03;27.45;;;16.38;;
55827;SDS011;41758;51.992;5.890;2023-12-14T01:47:30;21.77;;;17.70;;
55827;SDS011;41758;51.992;5.890;2023-12-14T01:49:55;29.98;;;18.52;;
55827;SDS011;41758;51.992;5.890;2023-12-14T01:52:21;32.30;;;19.20;;
55827;SDS011;41758;51.992;5.890;2023-12-14T01:54:47;26.55;;;17.63;;
55827;SDS011;41758;51.992;5.890;2023-12-14T01:57:12;30.98;;;19.00;;
55827;SDS011;41758;51.992;5.890;2023-12-14T01:59:38;29.48;;;17.90;;
55827;SDS011;41758;51.992;5.890;2023-12-14T02:02:04;29.95;;;20.27;;
55827;SDS011;41758;51.992;5.890;2023-12-14T02:04:30;24.15;;;18.25;;
55827;SDS011;41758;51.992;5.890;2023-12-14T02:06:56;31.20;;;20.08;;
55827;SDS011;41758;51.992;5.890;2023-12-14T02:09:22;28.25;;;17.83;;
55827;SDS011;41758;51.992;5.890;2023-12-14T02:11:48;29.00;;;16.48;;
55827;SDS011;41758;51.992;5.890;2023-12-14T02:14:13;24.08;;;16.20;;
55827;SDS011;41758;51.992;5.890;2023-12-14T02:16:39;28.25;;;17.08;;
55827;SDS011;41758;51.992;5.890;2023-12-14T02:19:05;29.25;;;16.67;;
55827;SDS011;41758;51.992;5.890;2023-12-14T02:21:30;30.15;;;16.92;;
55827;SDS011;41758;51.992;5.890;2023-12-14T02:23:56;30.35;;;16.98;;
55827;SDS011;41758;51.992;5.890;2023-12-14T02:26:22;28.40;;;17.55;;
55827;SDS011;41758;51.992;5.890;2023-12-14T02:28:47;28.88;;;17.52;;
55827;SDS011;41758;51.992;5.890;2023-12-14T02:31:13;23.15;;;16.45;;
55827;SDS011;41758;51.992;5.890;2023-12-14T02:33:39;23.63;;;17.33;;
55827;SDS011;41758;51.992;5.890;2023-12-14T02:36:05;25.98;;;20.13;;
55827;SDS011;41758;51.992;5.890;2023-12-14T02:38:31;29.15;;;20.38;;
55827;SDS011;41758;51.992;5.890;2023-12-14T02:40:57;27.98;;;19.13;;
55827;SDS011;41758;51.992;5.890;2023-12-14T02:43:22;28.48;;;18.40;;
55827;SDS011;41758;51.992;5.890;2023-12-14T02:45:48;27.50;;;18.48;;
55827;SDS011;41758;51.992;5.890;2023-12-14T02:48:14;28.13;;;16.95;;
55827;SDS011;41758;51.992;5.890;2023-12-14T02:50:40;27.00;;;17.05;;
55827;SDS011;41758;51.992;5.890;2023-12-14T02:53:06;24.80;;;16.85;;
55827;SDS011;41758;51.992;5.890;2023-12-14T02:55:32;32.05;;;20.00;;
55827;SDS011;41758;51.992;5.890;2023-12-14T02:57:57;28.52;;;18.77;;
55827;SDS011;41758;51.992;5.890;2023-12-14T03:00:23;29.35;;;17.80;;
55827;SDS011;41758;51.992;5.890;2023-12-14T03:02:49;25.60;;;17.38;;
55827;SDS011;41758;51.992;5.890;2023-12-14T03:05:14;25.33;;;16.67;;
55827;SDS011;41758;51.992;5.890;2023-12-14T03:07:40;26.92;;;16.38;;
55827;SDS011;41758;51.992;5.890;2023-12-14T03:10:06;23.80;;;16.42;;
55827;SDS011;41758;51.992;5.890;2023-12-14T03:12:32;24.83;;;17.17;;
55827;SDS011;41758;51.992;5.890;2023-12-14T03:14:58;25.85;;;15.07;;
55827;SDS011;41758;51.992;5.890;2023-12-14T03:17:23;25.85;;;17.75;;
55827;SDS011;41758;51.992;5.890;2023-12-14T03:19:49;30.00;;;18.27;;
55827;SDS011;41758;51.992;5.890;2023-12-14T03:22:15;28.55;;;19.20;;
55827;SDS011;41758;51.992;5.890;2023-12-14T03:24:41;28.70;;;18.70;;
55827;SDS011;41758;51.992;5.890;2023-12-14T03:27:07;27.17;;;18.15;;
55827;SDS011;41758;51.992;5.890;2023-12-14T03:29:32;27.67;;;17.95;;
55827;SDS011;41758;51.992;5.890;2023-12-14T03:31:58;24.73;;;16.95;;
55827;SDS011;41758;51.992;5.890;2023-12-14T03:34:24;26.42;;;16.52;;
55827;SDS011;41758;51.992;5.890;2023-12-14T03:36:50;23.20;;;16.63;;
55827;SDS011;41758;51.992;5.890;2023-12-14T03:39:16;25.23;;;16.92;;
55827;SDS011;41758;51.992;5.890;2023-12-14T03:41:42;23.15;;;15.73;;
55827;SDS011;41758;51.992;5.890;2023-12-14T03:44:08;24.48;;;17.00;;
55827;SDS011;41758;51.992;5.890;2023-12-14T03:46:34;24.33;;;16.60;;
55827;SDS011;41758;51.992;5.890;2023-12-14T03:49:00;19.77;;;16.83;;
55827;SDS011;41758;51.992;5.890;2023-12-14T03:51:26;22.35;;;16.42;;
55827;SDS011;41758;51.992;5.890;2023-12-14T03:53:52;25.00;;;17.30;;
55827;SDS011;41758;51.992;5.890;2023-12-14T03:56:17;24.48;;;16.98;;
55827;SDS011;41758;51.992;5.890;2023-12-14T03:58:43;22.55;;;18.13;;
55827;SDS011;41758;51.992;5.890;2023-12-14T04:01:16;26.38;;;18.23;;
55827;SDS011;41758;51.992;5.890;2023-12-14T04:03:42;25.20;;;17.45;;
55827;SDS011;41758;51.992;5.890;2023-12-14T04:06:08;28.30;;;18.00;;
55827;SDS011;41758;51.992;5.890;2023-12-14T04:08:34;26.80;;;17.65;;
55827;SDS011;41758;51.992;5.890;2023-12-14T04:10:59;21.98;;;18.25;;
55827;SDS011;41758;51.992;5.890;2023-12-14T04:13:26;27.08;;;19.25;;
55827;SDS011;41758;51.992;5.890;2023-12-14T04:15:52;25.77;;;17.35;;
55827;SDS011;41758;51.992;5.890;2023-12-14T04:18:18;23.88;;;16.77;;
55827;SDS011;41758;51.992;5.890;2023-12-14T04:20:43;25.73;;;17.30;;
55827;SDS011;41758;51.992;5.890;2023-12-14T04:23:09;28.27;;;18.25;;
55827;SDS011;41758;51.992;5.890;2023-12-14T04:25:35;25.60;;;16.33;;
55827;SDS011;41758;51.992;5.890;2023-12-14T04:28:00;24.83;;;15.80;;
55827;SDS011;41758;51.992;5.890;2023-12-14T04:30:26;25.20;;;14.55;;
55827;SDS011;41758;51.992;5.890;2023-12-14T04:32:52;24.70;;;15.35;;
55827;SDS011;41758;51.992;5.890;2023-12-14T04:35:18;24.15;;;13.60;;
55827;SDS011;41758;51.992;5.890;2023-12-14T04:37:44;23.13;;;13.50;;
55827;SDS011;41758;51.992;5.890;2023-12-14T04:40:09;23.52;;;14.15;;
55827;SDS011;41758;51.992;5.890;2023-12-14T04:42:36;19.85;;;13.05;;
55827;SDS011;41758;51.992;5.890;2023-12-14T04:45:01;25.40;;;14.02;;
55827;SDS011;41758;51.992;5.890;2023-12-14T04:47:27;25.33;;;15.13;;
55827;SDS011;41758;51.992;5.890;2023-12-14T04:49:53;24.00;;;17.45;;
55827;SDS011;41758;51.992;5.890;2023-12-14T04:52:19;29.83;;;19.83;;
55827;SDS011;41758;51.992;5.890;2023-12-14T04:54:45;26.42;;;18.05;;
55827;SDS011;41758;51.992;5.890;2023-12-14T04:57:10;29.67;;;17.88;;
55827;SDS011;41758;51.992;5.890;2023-12-14T04:59:36;26.00;;;18.48;;
55827;SDS011;41758;51.992;5.890;2023-12-14T05:02:02;26.70;;;20.63;;
55827;SDS011;41758;51.992;5.890;2023-12-14T05:04:27;29.88;;;20.95;;
55827;SDS011;41758;51.992;5.890;2023-12-14T05:06:53;27.80;;;19.05;;
55827;SDS011;41758;51.992;5.890;2023-12-14T05:09:19;28.55;;;20.77;;
55827;SDS011;41758;51.992;5.890;2023-12-14T05:11:45;28.05;;;21.30;;
55827;SDS011;41758;51.992;5.890;2023-12-14T05:14:10;23.67;;;20.27;;
55827;SDS011;41758;51.992;5.890;2023-12-14T05:16:36;32.33;;;22.42;;
55827;SDS011;41758;51.992;5.890;2023-12-14T05:19:02;27.30;;;19.70;;
55827;SDS011;41758;51.992;5.890;2023-12-14T05:21:27;26.42;;;20.10;;
55827;SDS011;41758;51.992;5.890;2023-12-14T05:23:53;30.08;;;18.98;;
55827;SDS011;41758;51.992;5.890;2023-12-14T05:26:19;25.83;;;17.25;;
55827;SDS011;41758;51.992;5.890;2023-12-14T05:28:45;26.40;;;17.08;;
55827;SDS011;41758;51.992;5.890;2023-12-14T05:31:10;25.92;;;16.65;;
55827;SDS011;41758;51.992;5.890;2023-12-14T05:33:37;21.40;;;15.52;;
55827;SDS011;41758;51.992;5.890;2023-12-14T05:36:03;22.42;;;19.10;;
55827;SDS011;41758;51.992;5.890;2023-12-14T05:38:35;24.77;;;18.67;;
55827;SDS011;41758;51.992;5.890;2023-12-14T05:41:05;24.05;;;20.13;;
55827;SDS011;41758;51.992;5.890;2023-12-14T05:43:31;26.48;;;19.13;;
55827;SDS011;41758;51.992;5.890;2023-12-14T05:45:57;22.13;;;17.08;;
55827;SDS011;41758;51.992;5.890;2023-12-14T05:48:22;24.27;;;17.48;;
55827;SDS011;41758;51.992;5.890;2023-12-14T05:50:48;26.92;;;17.30;;
55827;SDS011;41758;51.992;5.890;2023-12-14T05:53:16;20.95;;;17.02;;
55827;SDS011;41758;51.992;5.890;2023-12-14T05:55:42;20.95;;;16.10;;
55827;SDS011;41758;51.992;5.890;2023-12-14T05:58:07;22.13;;;17.08;;
55827;SDS011;41758;51.992;5.890;2023-12-14T06:00:33;20.60;;;17.15;;
55827;SDS011;41758;51.992;5.890;2023-12-14T06:03:00;25.02;;;18.15;;
55827;SDS011;41758;51.992;5.890;2023-12-14T06:05:26;23.05;;;18.20;;
55827;SDS011;41758;51.992;5.890;2023-12-14T06:07:52;25.55;;;18.75;;
55827;SDS011;41758;51.992;5.890;2023-12-14T06:10:18;24.45;;;18.17;;
55827;SDS011;41758;51.992;5.890;2023-12-14T06:12:44;24.45;;;17.08;;
55827;SDS011;41758;51.992;5.890;2023-12-14T06:15:09;21.38;;;17.60;;
55827;SDS011;41758;51.992;5.890;2023-12-14T06:17:38;20.90;;;15.48;;
55827;SDS011;41758;51.992;5.890;2023-12-14T06:20:06;23.80;;;17.40;;
55827;SDS011;41758;51.992;5.890;2023-12-14T06:22:38;20.55;;;16.02;;
55827;SDS011;41758;51.992;5.890;2023-12-14T06:25:05;21.10;;;15.82;;
55827;SDS011;41758;51.992;5.890;2023-12-14T06:27:30;23.83;;;15.90;;
55827;SDS011;41758;51.992;5.890;2023-12-14T06:29:56;22.02;;;14.10;;
55827;SDS011;41758;51.992;5.890;2023-12-14T06:32:22;23.13;;;14.35;;
55827;SDS011;41758;51.992;5.890;2023-12-14T06:34:48;18.02;;;13.95;;
55827;SDS011;41758;51.992;5.890;2023-12-14T06:37:14;21.08;;;14.68;;
55827;SDS011;41758;51.992;5.890;2023-12-14T06:39:42;19.38;;;14.70;;
55827;SDS011;41758;51.992;5.890;2023-12-14T06:42:08;19.05;;;14.05;;
55827;SDS011;41758;51.992;5.890;2023-12-14T06:44:34;19.20;;;14.45;;
55827;SDS011;41758;51.992;5.890;2023-12-14T06:47:00;20.38;;;14.60;;
55827;SDS011;41758;51.992;5.890;2023-12-14T06:49:25;19.08;;;13.68;;
55827;SDS011;41758;51.992;5.890;2023-12-14T06:51:51;18.17;;;13.32;;
55827;SDS011;41758;51.992;5.890;2023-12-14T06:54:17;18.67;;;13.20;;
55827;SDS011;41758;51.992;5.890;2023-12-14T06:56:43;18.13;;;12.75;;
55827;SDS011;41758;51.992;5.890;2023-12-14T06:59:09;20.10;;;12.82;;
55827;SDS011;41758;51.992;5.890;2023-12-14T07:01:35;17.35;;;11.95;;
55827;SDS011;41758;51.992;5.890;2023-12-14T07:04:00;16.55;;;10.70;;
55827;SDS011;41758;51.992;5.890;2023-12-14T07:06:28;15.02;;;10.90;;
55827;SDS011;41758;51.992;5.890;2023-12-14T07:08:54;20.10;;;12.90;;
55827;SDS011;41758;51.992;5.890;2023-12-14T07:11:20;20.20;;;12.90;;
55827;SDS011;41758;51.992;5.890;2023-12-14T07:13:45;20.52;;;12.60;;
55827;SDS011;41758;51.992;5.890;2023-12-14T07:16:11;18.05;;;13.23;;
55827;SDS011;41758;51.992;5.890;2023-12-14T07:18:38;21.20;;;13.35;;
55827;SDS011;41758;51.992;5.890;2023-12-14T07:21:05;17.60;;;14.25;;
55827;SDS011;41758;51.992;5.890;2023-12-14T07:23:31;22.58;;;16.30;;
55827;SDS011;41758;51.992;5.890;2023-12-14T07:25:57;23.10;;;15.07;;
55827;SDS011;41758;51.992;5.890;2023-12-14T07:28:23;22.05;;;14.38;;
55827;SDS011;41758;51.992;5.890;2023-12-14T07:30:49;20.77;;;15.48;;
55827;SDS011;41758;51.992;5.890;2023-12-14T07:33:15;19.40;;;14.90;;
55827;SDS011;41758;51.992;5.890;2023-12-14T07:35:41;19.10;;;14.38;;
55827;SDS011;41758;51.992;5.890;2023-12-14T07:38:08;19.55;;;13.85;;
55827;SDS011;41758;51.992;5.890;2023-12-14T07:40:37;20.30;;;14.13;;
55827;SDS011;41758;51.992;5.890;2023-12-14T07:43:06;17.08;;;12.52;;
55827;SDS011;41758;51.992;5.890;2023-12-14T07:45:32;21.25;;;14.35;;
55827;SDS011;41758;51.992;5.890;2023-12-14T07:47:58;16.20;;;12.43;;
55827;SDS011;41758;51.992;5.890;2023-12-14T07:50:25;17.23;;;14.10;;
55827;SDS011;41758;51.992;5.890;2023-12-14T07:52:51;18.23;;;13.32;;
55827;SDS011;41758;51.992;5.890;2023-12-14T07:55:18;15.80;;;12.15;;
55827;SDS011;41758;51.992;5.890;2023-12-14T07:57:44;15.10;;;11.65;;
55827;SDS011;41758;51.992;5.890;2023-12-14T08:00:09;16.23;;;12.65;;
55827;SDS011;41758;51.992;5.890;2023-12-14T08:02:36;15.77;;;12.23;;
55827;SDS011;41758;51.992;5.890;2023-12-14T08:05:02;17.45;;;12.90;;
55827;SDS011;41758;51.992;5.890;2023-12-14T08:07:28;19.83;;;11.90;;
55827;SDS011;41758;51.992;5.890;2023-12-14T08:09:55;16.23;;;12.10;;
55827;SDS011;41758;51.992;5.890;2023-12-14T08:12:21;14.55;;;11.43;;
55827;SDS011;41758;51.992;5.890;2023-12-14T08:14:47;16.48;;;11.75;;
55827;SDS011;41758;51.992;5.890;2023-12-14T08:17:13;16.83;;;13.07;;
55827;SDS011;41758;51.992;5.890;2023-12-14T08:19:39;16.77;;;13.02;;
55827;SDS011;41758;51.992;5.890;2023-12-14T08:22:04;19.08;;;14.80;;
55827;SDS011;41758;51.992;5.890;2023-12-14T08:24:31;18.65;;;14.07;;
55827;SDS011;41758;51.992;5.890;2023-12-14T08:26:56;19.40;;;13.00;;
55827;SDS011;41758;51.992;5.890;2023-12-14T08:29:22;17.85;;;12.88;;
55827;SDS011;41758;51.992;5.890;2023-12-14T08:31:48;17.77;;;13.35;;
55827;SDS011;41758;51.992;5.890;2023-12-14T08:34:14;17.80;;;11.70;;
55827;SDS011;41758;51.992;5.890;2023-12-14T08:36:39;17.35;;;11.48;;
55827;SDS011;41758;51.992;5.890;2023-12-14T08:39:05;14.43;;;11.25;;
55827;SDS011;41758;51.992;5.890;2023-12-14T08:41:31;17.73;;;12.57;;
55827;SDS011;41758;51.992;5.890;2023-12-14T08:43:57;19.20;;;12.88;;
55827;SDS011;41758;51.992;5.890;2023-12-14T08:46:23;19.17;;;11.80;;
55827;SDS011;41758;51.992;5.890;2023-12-14T08:48:48;18.75;;;12.57;;
55827;SDS011;41758;51.992;5.890;2023-12-14T08:51:14;18.13;;;12.30;;
55827;SDS011;41758;51.992;5.890;2023-12-14T08:53:40;19.40;;;12.80;;
55827;SDS011;41758;51.992;5.890;2023-12-14T08:56:06;16.50;;;10.98;;
55827;SDS011;41758;51.992;5.890;2023-12-14T08:58:33;16.30;;;10.57;;
55827;SDS011;41758;51.992;5.890;2023-12-14T09:00:59;16.83;;;10.98;;
55827;SDS011;41758;51.992;5.890;2023-12-14T09:03:24;15.85;;;10.35;;
55827;SDS011;41758;51.992;5.890;2023-12-14T09:05:51;18.52;;;12.10;;
55827;SDS011;41758;51.992;5.890;2023-12-14T09:08:17;18.92;;;13.43;;
55827;SDS011;41758;51.992;5.890;2023-12-14T09:10:43;17.95;;;12.68;;
55827;SDS011;41758;51.992;5.890;2023-12-14T09:13:09;20.70;;;12.30;;
55827;SDS011;41758;51.992;5.890;2023-12-14T09:15:35;19.15;;;11.38;;
55827;SDS011;41758;51.992;5.890;2023-12-14T09:18:01;20.25;;;12.20;;
55827;SDS011;41758;51.992;5.890;2023-12-14T09:20:27;17.27;;;10.70;;
55827;SDS011;41758;51.992;5.890;2023-12-14T09:22:53;19.23;;;11.38;;
55827;SDS011;41758;51.992;5.890;2023-12-14T09:25:19;15.50;;;9.43;;
55827;SDS011;41758;51.992;5.890;2023-12-14T09:27:44;17.38;;;10.50;;
55827;SDS011;41758;51.992;5.890;2023-12-14T09:30:10;17.08;;;10.32;;
55827;SDS011;41758;51.992;5.890;2023-12-14T09:32:37;16.23;;;10.48;;
55827;SDS011;41758;51.992;5.890;2023-12-14T09:35:02;17.30;;;9.82;;
55827;SDS011;41758;51.992;5.890;2023-12-14T09:37:28;15.82;;;9.05;;
55827;SDS011;41758;51.992;5.890;2023-12-14T09:39:54;17.85;;;10.88;;
55827;SDS011;41758;51.992;5.890;2023-12-14T09:42:20;13.68;;;9.30;;
55827;SDS011;41758;51.992;5.890;2023-12-14T09:44:46;17.42;;;12.57;;
55827;SDS011;41758;51.992;5.890;2023-12-14T09:47:13;19.88;;;13.60;;
55827;SDS011;41758;51.992;5.890;2023-12-14T09:49:39;17.92;;;12.27;;
55827;SDS011;41758;51.992;5.890;2023-12-14T09:52:08;16.77;;;13.57;;
55827;SDS011;41758;51.992;5.890;2023-12-14T09:54:34;18.50;;;14.30;;
55827;SDS011;41758;51.992;5.890;2023-12-14T09:57:00;19.38;;;13.80;;
55827;SDS011;41758;51.992;5.890;2023-12-14T09:59:26;19.15;;;12.90;;
55827;SDS011;41758;51.992;5.890;2023-12-14T10:01:51;16.75;;;13.63;;
55827;SDS011;41758;51.992;5.890;2023-12-14T10:04:18;20.40;;;13.48;;
55827;SDS011;41758;51.992;5.890;2023-12-14T10:06:47;17.40;;;12.82;;
55827;SDS011;41758;51.992;5.890;2023-12-14T10:09:13;21.35;;;12.13;;
55827;SDS011;41758;51.992;5.890;2023-12-14T10:11:41;20.48;;;12.13;;
55827;SDS011;41758;51.992;5.890;2023-12-14T10:14:21;18.42;;;11.65;;
55827;SDS011;41758;51.992;5.890;2023-12-14T10:16:50;21.63;;;14.32;;
55827;SDS011;41758;51.992;5.890;2023-12-14T10:19:17;20.40;;;14.18;;
55827;SDS011;41758;51.992;5.890;2023-12-14T10:21:44;19.83;;;14.68;;
55827;SDS011;41758;51.992;5.890;2023-12-14T10:24:12;19.55;;;13.98;;
55827;SDS011;41758;51.992;5.890;2023-12-14T10:26:38;24.42;;;16.55;;
55827;SDS011;41758;51.992;5.890;2023-12-14T10:29:04;22.15;;;15.55;;
55827;SDS011;41758;51.992;5.890;2023-12-14T10:31:32;21.77;;;15.60;;
55827;SDS011;41758;51.992;5.890;2023-12-14T10:34:05;23.88;;;15.48;;
55827;SDS011;41758;51.992;5.890;2023-12-14T10:36:32;20.80;;;14.98;;
55827;SDS011;41758;51.992;5.890;2023-12-14T10:38:58;21.67;;;16.38;;
55827;SDS011;41758;51.992;5.890;2023-12-14T10:41:24;22.92;;;16.23;;
55827;SDS011;41758;51.992;5.890;2023-12-14T10:43:50;22.38;;;14.93;;
55827;SDS011;41758;51.992;5.890;2023-12-14T10:46:20;20.67;;;15.80;;
55827;SDS011;41758;51.992;5.890;2023-12-14T10:48:49;23.63;;;15.55;;
55827;SDS011;41758;51.992;5.890;2023-12-14T10:51:17;17.65;;;14.18;;
55827;SDS011;41758;51.992;5.890;2023-12-14T10:53:45;25.05;;;15.85;;
55827;SDS011;41758;51.992;5.890;2023-12-14T10:56:13;20.23;;;15.77;;
55827;SDS011;41758;51.992;5.890;2023-12-14T10:58:46;19.65;;;15.02;;
55827;SDS011;41758;51.992;5.890;2023-12-14T11:01:16;23.13;;;14.80;;
55827;SDS011;41758;51.992;5.890;2023-12-14T11:03:43;21.85;;;13.88;;
55827;SDS011;41758;51.992;5.890;2023-12-14T11:08:56;18.30;;;11.82;;
55827;SDS011;41758;51.992;5.890;2023-12-14T11:11:27;21.70;;;12.63;;
55827;SDS011;41758;51.992;5.890;2023-12-14T11:13:53;19.05;;;12.30;;
55827;SDS011;41758;51.992;5.890;2023-12-14T11:16:20;24.95;;;13.32;;
55827;SDS011;41758;51.992;5.890;2023-12-14T11:18:46;21.08;;;12.85;;
55827;SDS011;41758;51.992;5.890;2023-12-14T11:21:17;19.60;;;14.90;;
55827;SDS011;41758;51.992;5.890;2023-12-14T11:23:48;23.38;;;17.20;;
55827;SDS011;41758;51.992;5.890;2023-12-14T11:26:20;26.88;;;18.15;;
55827;SDS011;41758;51.992;5.890;2023-12-14T11:28:49;24.00;;;16.30;;
55827;SDS011;41758;51.992;5.890;2023-12-14T11:31:15;22.67;;;14.40;;
55827;SDS011;41758;51.992;5.890;2023-12-14T11:33:42;22.80;;;14.68;;
55827;SDS011;41758;51.992;5.890;2023-12-14T11:36:10;22.63;;;14.85;;
55827;SDS011;41758;51.992;5.890;2023-12-14T11:38:36;25.08;;;15.90;;
55827;SDS011;41758;51.992;5.890;2023-12-14T11:41:02;28.15;;;15.35;;
55827;SDS011;41758;51.992;5.890;2023-12-14T11:43:28;23.10;;;16.73;;
55827;SDS011;41758;51.992;5.890;2023-12-14T11:45:54;23.50;;;17.75;;
55827;SDS011;41758;51.992;5.890;2023-12-14T11:48:23;25.40;;;17.58;;
55827;SDS011;41758;51.992;5.890;2023-12-14T11:50:49;27.27;;;19.15;;
55827;SDS011;41758;51.992;5.890;2023-12-14T11:53:15;20.67;;;16.10;;
55827;SDS011;41758;51.992;5.890;2023-12-14T11:55:41;21.35;;;16.98;;
55827;SDS011;41758;51.992;5.890;2023-12-14T11:58:08;24.75;;;17.67;;
55827;SDS011;41758;51.992;5.890;2023-12-14T12:00:36;24.60;;;18.75;;
55827;SDS011;41758;51.992;5.890;2023-12-14T12:05:44;25.13;;;18.00;;
55827;SDS011;41758;51.992;5.890;2023-12-14T12:08:11;24.88;;;16.67;;
55827;SDS011;41758;51.992;5.890;2023-12-14T12:10:38;22.48;;;15.77;;
55827;SDS011;41758;51.992;5.890;2023-12-14T12:13:06;22.48;;;14.20;;
55827;SDS011;41758;51.992;5.890;2023-12-14T12:15:42;22.88;;;15.45;;
55827;SDS011;41758;51.992;5.890;2023-12-14T12:18:12;24.35;;;15.70;;
55827;SDS011;41758;51.992;5.890;2023-12-14T12:20:39;21.13;;;12.98;;
55827;SDS011;41758;51.992;5.890;2023-12-14T12:23:05;22.17;;;12.77;;
55827;SDS011;41758;51.992;5.890;2023-12-14T12:25:31;21.15;;;13.43;;
55827;SDS011;41758;51.992;5.890;2023-12-14T12:27:58;43.30;;;32.25;;
55827;SDS011;41758;51.992;5.890;2023-12-14T12:30:24;25.40;;;19.90;;
55827;SDS011;41758;51.992;5.890;2023-12-14T12:32:51;25.88;;;17.55;;
55827;SDS011;41758;51.992;5.890;2023-12-14T12:35:20;23.17;;;16.17;;
55827;SDS011;41758;51.992;5.890;2023-12-14T12:37:46;22.65;;;17.60;;
55827;SDS011;41758;51.992;5.890;2023-12-14T12:40:12;23.65;;;17.58;;
55827;SDS011;41758;51.992;5.890;2023-12-14T12:42:41;23.30;;;16.52;;
55827;SDS011;41758;51.992;5.890;2023-12-14T12:45:06;22.95;;;16.63;;
55827;SDS011;41758;51.992;5.890;2023-12-14T12:47:32;25.45;;;17.23;;
55827;SDS011;41758;51.992;5.890;2023-12-14T12:49:58;24.02;;;18.30;;
55827;SDS011;41758;51.992;5.890;2023-12-14T12:52:24;23.05;;;17.20;;
55827;SDS011;41758;51.992;5.890;2023-12-14T12:54:49;28.75;;;17.38;;
55827;SDS011;41758;51.992;5.890;2023-12-14T12:57:15;24.08;;;16.35;;
55827;SDS011;41758;51.992;5.890;2023-12-14T12:59:41;23.17;;;15.88;;
55827;SDS011;41758;51.992;5.890;2023-12-14T13:02:06;23.45;;;15.23;;
55827;SDS011;41758;51.992;5.890;2023-12-14T13:04:32;24.35;;;15.07;;
55827;SDS011;41758;51.992;5.890;2023-12-14T13:06:58;22.20;;;16.80;;
55827;SDS011;41758;51.992;5.890;2023-12-14T13:09:27;20.90;;;15.27;;
55827;SDS011;41758;51.992;5.890;2023-12-14T13:11:52;22.50;;;14.10;;
55827;SDS011;41758;51.992;5.890;2023-12-14T13:14:18;18.35;;;13.00;;
55827;SDS011;41758;51.992;5.890;2023-12-14T13:16:44;15.52;;;11.77;;
55827;SDS011;41758;51.992;5.890;2023-12-14T13:19:09;18.92;;;13.45;;
55827;SDS011;41758;51.992;5.890;2023-12-14T13:21:35;21.33;;;13.75;;
55827;SDS011;41758;51.992;5.890;2023-12-14T13:24:01;22.88;;;14.32;;
55827;SDS011;41758;51.992;5.890;2023-12-14T13:26:27;23.75;;;13.32;;
55827;SDS011;41758;51.992;5.890;2023-12-14T13:28:54;18.75;;;12.45;;
55827;SDS011;41758;51.992;5.890;2023-12-14T13:31:19;16.58;;;11.48;;
55827;SDS011;41758;51.992;5.890;2023-12-14T13:33:46;20.08;;;13.00;;
55827;SDS011;41758;51.992;5.890;2023-12-14T13:36:15;22.17;;;14.23;;
55827;SDS011;41758;51.992;5.890;2023-12-14T13:38:41;23.52;;;15.20;;
55827;SDS011;41758;51.992;5.890;2023-12-14T13:41:10;21.73;;;15.43;;
55827;SDS011;41758;51.992;5.890;2023-12-14T13:43:35;20.17;;;13.65;;
55827;SDS011;41758;51.992;5.890;2023-12-14T13:46:01;20.45;;;14.20;;
55827;SDS011;41758;51.992;5.890;2023-12-14T13:48:27;20.20;;;14.07;;
55827;SDS011;41758;51.992;5.890;2023-12-14T13:50:53;18.92;;;13.38;;
55827;SDS011;41758;51.992;5.890;2023-12-14T13:53:20;19.83;;;14.63;;
55827;SDS011;41758;51.992;5.890;2023-12-14T13:55:46;20.83;;;12.93;;
55827;SDS011;41758;51.992;5.890;2023-12-14T13:58:14;20.58;;;12.65;;
55827;SDS011;41758;51.992;5.890;2023-12-14T14:00:40;19.02;;;11.70;;
55827;SDS011;41758;51.992;5.890;2023-12-14T14:03:06;18.27;;;12.30;;
55827;SDS011;41758;51.992;5.890;2023-12-14T14:05:33;19.58;;;12.80;;
55827;SDS011;41758;51.992;5.890;2023-12-14T14:07:59;20.17;;;12.88;;
55827;SDS011;41758;51.992;5.890;2023-12-14T14:10:25;22.58;;;14.60;;
55827;SDS011;41758;51.992;5.890;2023-12-14T14:12:51;23.08;;;15.93;;
55827;SDS011;41758;51.992;5.890;2023-12-14T14:15:17;20.90;;;13.55;;
55827;SDS011;41758;51.992;5.890;2023-12-14T14:17:44;21.27;;;13.88;;
55827;SDS011;41758;51.992;5.890;2023-12-14T14:20:13;20.98;;;13.68;;